sensor_id;sensor_type;location;lat;lon;timestamp;temperature;humidity
67748;HTU21D;54543;50.712;6.070;2023-08-06T00:00:05;15.10;88.35
67748;HTU21D;54543;50.712;6.070;2023-08-06T00:02:31;15.10;88.57
67748;HTU21D;54543;50.712;6.070;2023-08-06T00:04:57;15.08;88.79
67748;HTU21D;54543;50.712;6.070;2023-08-06T00:07:22;15.03;88.67
67748;HTU21D;54543;50.712;6.070;2023-08-06T00:09:48;14.97;89.48
67748;HTU21D;54543;50.712;6.070;2023-08-06T00:12:14;14.92;88.65
67748;HTU21D;54543;50.712;6.070;2023-08-06T00:14:39;14.87;89.13
67748;HTU21D;54543;50.712;6.070;2023-08-06T00:17:05;14.79;89.12
67748;HTU21D;54543;50.712;6.070;2023-08-06T00:19:31;14.71;89.34
67748;HTU21D;54543;50.712;6.070;2023-08-06T00:21:57;14.66;90.38
67748;HTU21D;54543;50.712;6.070;2023-08-06T00:24:23;14.60;89.93
67748;HTU21D;54543;50.712;6.070;2023-08-06T00:26:48;14.57;90.07
67748;HTU21D;54543;50.712;6.070;2023-08-06T00:29:14;14.54;90.03
67748;HTU21D;54543;50.712;6.070;2023-08-06T00:31:39;14.51;90.15
67748;HTU21D;54543;50.712;6.070;2023-08-06T00:34:05;14.49;90.14
67748;HTU21D;54543;50.712;6.070;2023-08-06T00:36:31;14.48;90.18
67748;HTU21D;54543;50.712;6.070;2023-08-06T00:38:56;14.47;90.12
67748;HTU21D;54543;50.712;6.070;2023-08-06T00:41:22;14.45;90.20
67748;HTU21D;54543;50.712;6.070;2023-08-06T00:43:47;14.43;90.21
67748;HTU21D;54543;50.712;6.070;2023-08-06T00:46:13;14.41;90.35
67748;HTU21D;54543;50.712;6.070;2023-08-06T00:48:40;14.39;90.34
67748;HTU21D;54543;50.712;6.070;2023-08-06T00:51:08;14.37;90.52
67748;HTU21D;54543;50.712;6.070;2023-08-06T00:53:35;14.38;90.80
67748;HTU21D;54543;50.712;6.070;2023-08-06T00:56:02;14.38;90.89
67748;HTU21D;54543;50.712;6.070;2023-08-06T00:58:28;14.36;90.44
67748;HTU21D;54543;50.712;6.070;2023-08-06T01:00:53;14.37;90.31
67748;HTU21D;54543;50.712;6.070;2023-08-06T01:03:19;14.37;90.21
67748;HTU21D;54543;50.712;6.070;2023-08-06T01:05:45;14.39;90.40
67748;HTU21D;54543;50.712;6.070;2023-08-06T01:13:42;14.52;90.12
67748;HTU21D;54543;50.712;6.070;2023-08-06T01:16:09;14.55;89.66
67748;HTU21D;54543;50.712;6.070;2023-08-06T01:18:35;14.62;89.53
67748;HTU21D;54543;50.712;6.070;2023-08-06T01:21:02;14.67;89.32
67748;HTU21D;54543;50.712;6.070;2023-08-06T01:23:28;14.71;89.14
67748;HTU21D;54543;50.712;6.070;2023-08-06T01:26:10;14.77;88.97
67748;HTU21D;54543;50.712;6.070;2023-08-06T01:31:41;14.82;89.07
67748;HTU21D;54543;50.712;6.070;2023-08-06T01:34:24;14.86;88.63
67748;HTU21D;54543;50.712;6.070;2023-08-06T01:36:51;14.89;88.52
67748;HTU21D;54543;50.712;6.070;2023-08-06T01:39:17;14.93;88.40
67748;HTU21D;54543;50.712;6.070;2023-08-06T01:41:47;14.95;88.37
67748;HTU21D;54543;50.712;6.070;2023-08-06T01:44:14;14.97;88.27
67748;HTU21D;54543;50.712;6.070;2023-08-06T01:46:40;14.97;88.25
67748;HTU21D;54543;50.712;6.070;2023-08-06T01:49:05;15.00;88.25
67748;HTU21D;54543;50.712;6.070;2023-08-06T01:51:30;15.01;88.18
67748;HTU21D;54543;50.712;6.070;2023-08-06T01:53:56;15.04;88.21
67748;HTU21D;54543;50.712;6.070;2023-08-06T01:56:22;15.03;88.14
67748;HTU21D;54543;50.712;6.070;2023-08-06T01:58:47;15.01;88.27
67748;HTU21D;54543;50.712;6.070;2023-08-06T02:01:13;15.01;88.47
67748;HTU21D;54543;50.712;6.070;2023-08-06T02:03:39;15.00;88.65
67748;HTU21D;54543;50.712;6.070;2023-08-06T02:06:04;15.01;88.83
67748;HTU21D;54543;50.712;6.070;2023-08-06T02:08:30;14.98;88.80
67748;HTU21D;54543;50.712;6.070;2023-08-06T02:10:55;14.98;89.04
67748;HTU21D;54543;50.712;6.070;2023-08-06T02:13:21;14.97;89.24
67748;HTU21D;54543;50.712;6.070;2023-08-06T02:15:47;14.98;89.38
67748;HTU21D;54543;50.712;6.070;2023-08-06T02:18:15;14.96;89.39
67748;HTU21D;54543;50.712;6.070;2023-08-06T02:20:42;14.94;89.43
67748;HTU21D;54543;50.712;6.070;2023-08-06T02:23:08;14.95;89.37
67748;HTU21D;54543;50.712;6.070;2023-08-06T02:25:34;14.94;89.63
67748;HTU21D;54543;50.712;6.070;2023-08-06T02:28:00;14.93;89.87
67748;HTU21D;54543;50.712;6.070;2023-08-06T02:30:25;14.91;89.93
67748;HTU21D;54543;50.712;6.070;2023-08-06T02:32:51;14.93;89.86
67748;HTU21D;54543;50.712;6.070;2023-08-06T02:35:17;14.94;90.11
67748;HTU21D;54543;50.712;6.070;2023-08-06T02:37:43;14.93;90.46
67748;HTU21D;54543;50.712;6.070;2023-08-06T02:40:09;14.92;90.58
67748;HTU21D;54543;50.712;6.070;2023-08-06T02:42:35;14.89;90.44
67748;HTU21D;54543;50.712;6.070;2023-08-06T02:45:00;14.86;91.33
67748;HTU21D;54543;50.712;6.070;2023-08-06T02:47:26;14.84;91.39
67748;HTU21D;54543;50.712;6.070;2023-08-06T02:49:51;14.83;91.41
67748;HTU21D;54543;50.712;6.070;2023-08-06T02:52:17;14.82;91.63
67748;HTU21D;54543;50.712;6.070;2023-08-06T02:54:43;14.83;91.39
67748;HTU21D;54543;50.712;6.070;2023-08-06T02:57:09;14.82;92.85
67748;HTU21D;54543;50.712;6.070;2023-08-06T02:59:34;14.81;91.94
67748;HTU21D;54543;50.712;6.070;2023-08-06T03:02:00;14.81;92.79
67748;HTU21D;54543;50.712;6.070;2023-08-06T03:04:26;14.81;92.06
67748;HTU21D;54543;50.712;6.070;2023-08-06T03:06:51;14.79;92.01
67748;HTU21D;54543;50.712;6.070;2023-08-06T03:09:17;14.80;92.69
67748;HTU21D;54543;50.712;6.070;2023-08-06T03:11:43;14.79;92.25
67748;HTU21D;54543;50.712;6.070;2023-08-06T03:14:09;14.79;91.92
67748;HTU21D;54543;50.712;6.070;2023-08-06T03:16:34;14.81;92.30
67748;HTU21D;54543;50.712;6.070;2023-08-06T03:19:00;14.82;92.59
67748;HTU21D;54543;50.712;6.070;2023-08-06T03:21:25;14.82;92.69
67748;HTU21D;54543;50.712;6.070;2023-08-06T03:23:51;14.82;92.82
67748;HTU21D;54543;50.712;6.070;2023-08-06T03:26:16;14.81;92.64
67748;HTU21D;54543;50.712;6.070;2023-08-06T03:28:42;14.81;93.08
67748;HTU21D;54543;50.712;6.070;2023-08-06T03:31:08;14.79;93.06
67748;HTU21D;54543;50.712;6.070;2023-08-06T03:33:33;14.80;92.96
67748;HTU21D;54543;50.712;6.070;2023-08-06T03:35:59;14.79;93.06
67748;HTU21D;54543;50.712;6.070;2023-08-06T03:38:25;14.80;93.40
67748;HTU21D;54543;50.712;6.070;2023-08-06T03:40:50;14.80;93.40
67748;HTU21D;54543;50.712;6.070;2023-08-06T03:43:16;14.82;93.24
67748;HTU21D;54543;50.712;6.070;2023-08-06T03:45:42;14.81;93.32
67748;HTU21D;54543;50.712;6.070;2023-08-06T03:48:08;14.82;93.41
67748;HTU21D;54543;50.712;6.070;2023-08-06T03:50:34;14.82;93.37
67748;HTU21D;54543;50.712;6.070;2023-08-06T03:52:59;14.81;93.53
67748;HTU21D;54543;50.712;6.070;2023-08-06T03:55:25;14.80;93.50
67748;HTU21D;54543;50.712;6.070;2023-08-06T03:57:50;14.81;93.43
67748;HTU21D;54543;50.712;6.070;2023-08-06T04:00:16;14.80;93.61
67748;HTU21D;54543;50.712;6.070;2023-08-06T04:02:42;14.81;93.72
67748;HTU21D;54543;50.712;6.070;2023-08-06T04:05:08;14.81;93.49
67748;HTU21D;54543;50.712;6.070;2023-08-06T04:07:33;14.83;93.52
67748;HTU21D;54543;50.712;6.070;2023-08-06T04:10:02;14.83;93.72
67748;HTU21D;54543;50.712;6.070;2023-08-06T04:12:28;14.83;93.53
67748;HTU21D;54543;50.712;6.070;2023-08-06T04:14:55;14.83;93.22
67748;HTU21D;54543;50.712;6.070;2023-08-06T04:17:21;14.83;93.72
67748;HTU21D;54543;50.712;6.070;2023-08-06T04:19:52;14.81;93.25
67748;HTU21D;54543;50.712;6.070;2023-08-06T04:22:18;14.79;92.73
67748;HTU21D;54543;50.712;6.070;2023-08-06T04:24:44;14.78;92.18
67748;HTU21D;54543;50.712;6.070;2023-08-06T04:27:10;14.71;92.36
67748;HTU21D;54543;50.712;6.070;2023-08-06T04:29:37;14.66;94.08
67748;HTU21D;54543;50.712;6.070;2023-08-06T04:32:05;14.58;94.69
67748;HTU21D;54543;50.712;6.070;2023-08-06T04:34:31;14.48;97.14
67748;HTU21D;54543;50.712;6.070;2023-08-06T04:36:58;14.43;97.01
67748;HTU21D;54543;50.712;6.070;2023-08-06T04:39:24;14.41;95.81
67748;HTU21D;54543;50.712;6.070;2023-08-06T04:41:49;14.37;97.09
67748;HTU21D;54543;50.712;6.070;2023-08-06T04:44:15;14.35;97.66
67748;HTU21D;54543;50.712;6.070;2023-08-06T04:46:40;14.34;98.54
67748;HTU21D;54543;50.712;6.070;2023-08-06T04:49:06;14.30;99.52
67748;HTU21D;54543;50.712;6.070;2023-08-06T04:51:32;14.29;99.32
67748;HTU21D;54543;50.712;6.070;2023-08-06T04:53:57;14.26;100.58
67748;HTU21D;54543;50.712;6.070;2023-08-06T04:56:23;14.24;103.85
67748;HTU21D;54543;50.712;6.070;2023-08-06T04:58:49;14.22;102.77
67748;HTU21D;54543;50.712;6.070;2023-08-06T05:01:15;14.20;103.38
67748;HTU21D;54543;50.712;6.070;2023-08-06T05:03:40;14.19;102.66
67748;HTU21D;54543;50.712;6.070;2023-08-06T05:06:06;14.18;102.25
67748;HTU21D;54543;50.712;6.070;2023-08-06T05:08:31;14.20;102.35
67748;HTU21D;54543;50.712;6.070;2023-08-06T05:10:57;14.23;102.29
67748;HTU21D;54543;50.712;6.070;2023-08-06T05:13:23;14.24;101.09
67748;HTU21D;54543;50.712;6.070;2023-08-06T05:15:48;14.24;101.20
67748;HTU21D;54543;50.712;6.070;2023-08-06T05:18:14;14.24;101.33
67748;HTU21D;54543;50.712;6.070;2023-08-06T05:20:41;14.25;101.49
67748;HTU21D;54543;50.712;6.070;2023-08-06T05:23:07;14.26;101.15
67748;HTU21D;54543;50.712;6.070;2023-08-06T05:25:34;14.29;101.77
67748;HTU21D;54543;50.712;6.070;2023-08-06T05:28:00;14.32;102.55
67748;HTU21D;54543;50.712;6.070;2023-08-06T05:30:27;14.32;102.28
67748;HTU21D;54543;50.712;6.070;2023-08-06T05:32:52;14.29;102.58
67748;HTU21D;54543;50.712;6.070;2023-08-06T05:35:18;14.29;102.48
67748;HTU21D;54543;50.712;6.070;2023-08-06T05:37:44;14.30;102.21
67748;HTU21D;54543;50.712;6.070;2023-08-06T05:40:09;14.33;102.13
67748;HTU21D;54543;50.712;6.070;2023-08-06T05:42:35;14.34;102.12
67748;HTU21D;54543;50.712;6.070;2023-08-06T05:45:01;14.36;102.34
67748;HTU21D;54543;50.712;6.070;2023-08-06T05:47:26;14.36;102.28
67748;HTU21D;54543;50.712;6.070;2023-08-06T05:49:52;14.36;102.59
67748;HTU21D;54543;50.712;6.070;2023-08-06T05:52:17;14.36;102.41
67748;HTU21D;54543;50.712;6.070;2023-08-06T05:54:43;14.36;102.17
67748;HTU21D;54543;50.712;6.070;2023-08-06T05:57:09;14.35;102.92
67748;HTU21D;54543;50.712;6.070;2023-08-06T05:59:34;14.35;102.39
67748;HTU21D;54543;50.712;6.070;2023-08-06T06:02:00;14.37;102.62
67748;HTU21D;54543;50.712;6.070;2023-08-06T06:04:27;14.39;102.98
67748;HTU21D;54543;50.712;6.070;2023-08-06T06:06:53;14.37;102.30
67748;HTU21D;54543;50.712;6.070;2023-08-06T06:09:18;14.38;101.66
67748;HTU21D;54543;50.712;6.070;2023-08-06T06:11:44;14.34;101.65
67748;HTU21D;54543;50.712;6.070;2023-08-06T06:14:10;14.30;101.68
67748;HTU21D;54543;50.712;6.070;2023-08-06T06:16:35;14.30;101.87
67748;HTU21D;54543;50.712;6.070;2023-08-06T06:19:01;14.29;101.32
67748;HTU21D;54543;50.712;6.070;2023-08-06T06:21:26;14.29;101.41
67748;HTU21D;54543;50.712;6.070;2023-08-06T06:23:52;14.28;101.25
67748;HTU21D;54543;50.712;6.070;2023-08-06T06:26:21;14.28;101.16
67748;HTU21D;54543;50.712;6.070;2023-08-06T06:28:46;14.30;101.51
67748;HTU21D;54543;50.712;6.070;2023-08-06T06:31:12;14.30;101.78
67748;HTU21D;54543;50.712;6.070;2023-08-06T06:33:38;14.35;102.60
67748;HTU21D;54543;50.712;6.070;2023-08-06T06:36:03;14.38;102.23
67748;HTU21D;54543;50.712;6.070;2023-08-06T06:38:29;14.44;102.51
67748;HTU21D;54543;50.712;6.070;2023-08-06T06:40:58;14.49;102.21
67748;HTU21D;54543;50.712;6.070;2023-08-06T06:43:24;14.53;101.67
67748;HTU21D;54543;50.712;6.070;2023-08-06T06:45:55;14.56;102.06
67748;HTU21D;54543;50.712;6.070;2023-08-06T06:48:21;14.59;101.19
67748;HTU21D;54543;50.712;6.070;2023-08-06T06:50:47;14.63;101.27
67748;HTU21D;54543;50.712;6.070;2023-08-06T06:53:14;14.63;101.54
67748;HTU21D;54543;50.712;6.070;2023-08-06T06:55:39;14.59;101.33
67748;HTU21D;54543;50.712;6.070;2023-08-06T06:58:05;14.58;101.28
67748;HTU21D;54543;50.712;6.070;2023-08-06T07:00:30;14.58;101.16
67748;HTU21D;54543;50.712;6.070;2023-08-06T07:02:56;14.59;101.42
67748;HTU21D;54543;50.712;6.070;2023-08-06T07:05:22;14.60;100.70
67748;HTU21D;54543;50.712;6.070;2023-08-06T07:07:47;14.62;101.53
67748;HTU21D;54543;50.712;6.070;2023-08-06T07:10:13;14.62;101.57
67748;HTU21D;54543;50.712;6.070;2023-08-06T07:12:38;14.63;101.82
67748;HTU21D;54543;50.712;6.070;2023-08-06T07:15:06;14.64;101.22
67748;HTU21D;54543;50.712;6.070;2023-08-06T07:17:31;14.64;101.55
67748;HTU21D;54543;50.712;6.070;2023-08-06T07:19:57;14.63;101.89
67748;HTU21D;54543;50.712;6.070;2023-08-06T07:22:22;14.59;102.22
67748;HTU21D;54543;50.712;6.070;2023-08-06T07:24:48;14.54;102.31
67748;HTU21D;54543;50.712;6.070;2023-08-06T07:27:14;14.48;102.02
67748;HTU21D;54543;50.712;6.070;2023-08-06T07:29:39;14.39;102.15
67748;HTU21D;54543;50.712;6.070;2023-08-06T07:32:07;14.38;102.27
67748;HTU21D;54543;50.712;6.070;2023-08-06T07:34:32;14.37;102.34
67748;HTU21D;54543;50.712;6.070;2023-08-06T07:36:58;14.34;102.44
67748;HTU21D;54543;50.712;6.070;2023-08-06T07:39:24;14.27;102.44
67748;HTU21D;54543;50.712;6.070;2023-08-06T07:41:50;14.10;102.89
67748;HTU21D;54543;50.712;6.070;2023-08-06T07:44:15;13.89;104.25
67748;HTU21D;54543;50.712;6.070;2023-08-06T07:46:41;13.81;105.43
67748;HTU21D;54543;50.712;6.070;2023-08-06T07:49:07;13.81;105.80
67748;HTU21D;54543;50.712;6.070;2023-08-06T07:51:32;13.77;105.80
67748;HTU21D;54543;50.712;6.070;2023-08-06T07:53:58;13.69;105.48
67748;HTU21D;54543;50.712;6.070;2023-08-06T07:56:24;13.59;105.65
67748;HTU21D;54543;50.712;6.070;2023-08-06T07:58:49;13.51;106.02
67748;HTU21D;54543;50.712;6.070;2023-08-06T08:01:15;13.44;105.69
67748;HTU21D;54543;50.712;6.070;2023-08-06T08:03:40;13.32;106.28
67748;HTU21D;54543;50.712;6.070;2023-08-06T08:06:06;13.33;107.16
67748;HTU21D;54543;50.712;6.070;2023-08-06T08:08:32;13.34;107.07
67748;HTU21D;54543;50.712;6.070;2023-08-06T08:10:57;13.33;106.98
67748;HTU21D;54543;50.712;6.070;2023-08-06T08:13:25;13.27;106.80
67748;HTU21D;54543;50.712;6.070;2023-08-06T08:15:57;13.27;107.25
67748;HTU21D;54543;50.712;6.070;2023-08-06T08:18:23;13.30;107.22
67748;HTU21D;54543;50.712;6.070;2023-08-06T08:20:49;13.27;107.02
67748;HTU21D;54543;50.712;6.070;2023-08-06T08:23:14;13.23;107.08
67748;HTU21D;54543;50.712;6.070;2023-08-06T08:25:40;13.20;106.94
67748;HTU21D;54543;50.712;6.070;2023-08-06T08:28:07;13.21;107.29
67748;HTU21D;54543;50.712;6.070;2023-08-06T08:30:33;13.26;107.40
67748;HTU21D;54543;50.712;6.070;2023-08-06T08:32:59;13.29;107.28
67748;HTU21D;54543;50.712;6.070;2023-08-06T08:35:24;13.31;107.40
67748;HTU21D;54543;50.712;6.070;2023-08-06T08:37:50;13.33;108.35
67748;HTU21D;54543;50.712;6.070;2023-08-06T08:40:17;13.31;107.08
67748;HTU21D;54543;50.712;6.070;2023-08-06T08:42:42;13.31;115.92
67748;HTU21D;54543;50.712;6.070;2023-08-06T08:45:13;13.32;108.85
67748;HTU21D;54543;50.712;6.070;2023-08-06T08:47:41;13.29;108.60
67748;HTU21D;54543;50.712;6.070;2023-08-06T08:50:08;13.22;108.78
67748;HTU21D;54543;50.712;6.070;2023-08-06T08:52:35;13.17;108.30
67748;HTU21D;54543;50.712;6.070;2023-08-06T08:55:01;13.07;107.10
67748;HTU21D;54543;50.712;6.070;2023-08-06T08:57:27;12.93;106.90
67748;HTU21D;54543;50.712;6.070;2023-08-06T08:59:53;12.89;107.35
67748;HTU21D;54543;50.712;6.070;2023-08-06T09:02:21;12.90;107.87
67748;HTU21D;54543;50.712;6.070;2023-08-06T09:04:48;12.91;107.85
67748;HTU21D;54543;50.712;6.070;2023-08-06T09:07:17;12.93;108.01
67748;HTU21D;54543;50.712;6.070;2023-08-06T09:09:43;13.00;108.11
67748;HTU21D;54543;50.712;6.070;2023-08-06T09:12:15;13.05;108.06
67748;HTU21D;54543;50.712;6.070;2023-08-06T09:14:41;13.08;107.76
67748;HTU21D;54543;50.712;6.070;2023-08-06T09:17:07;13.05;107.06
67748;HTU21D;54543;50.712;6.070;2023-08-06T09:19:34;13.09;107.28
67748;HTU21D;54543;50.712;6.070;2023-08-06T09:21:59;13.16;107.59
67748;HTU21D;54543;50.712;6.070;2023-08-06T09:24:25;13.27;107.66
67748;HTU21D;54543;50.712;6.070;2023-08-06T09:26:52;13.25;107.18
67748;HTU21D;54543;50.712;6.070;2023-08-06T09:29:17;13.23;106.56
67748;HTU21D;54543;50.712;6.070;2023-08-06T09:31:50;13.26;107.11
67748;HTU21D;54543;50.712;6.070;2023-08-06T09:34:22;13.34;107.20
67748;HTU21D;54543;50.712;6.070;2023-08-06T09:36:52;13.37;107.11
67748;HTU21D;54543;50.712;6.070;2023-08-06T09:39:25;13.37;106.88
67748;HTU21D;54543;50.712;6.070;2023-08-06T09:41:59;13.33;106.74
67748;HTU21D;54543;50.712;6.070;2023-08-06T09:44:26;13.27;107.07
67748;HTU21D;54543;50.712;6.070;2023-08-06T09:46:53;13.31;107.22
67748;HTU21D;54543;50.712;6.070;2023-08-06T09:49:53;13.32;107.43
67748;HTU21D;54543;50.712;6.070;2023-08-06T09:52:13;13.38;107.50
67748;HTU21D;54543;50.712;6.070;2023-08-06T09:54:39;13.38;107.45
67748;HTU21D;54543;50.712;6.070;2023-08-06T09:57:05;13.39;107.44
67748;HTU21D;54543;50.712;6.070;2023-08-06T09:59:31;13.35;107.66
67748;HTU21D;54543;50.712;6.070;2023-08-06T10:01:57;13.38;113.96
67748;HTU21D;54543;50.712;6.070;2023-08-06T10:04:24;13.39;115.86
67748;HTU21D;54543;50.712;6.070;2023-08-06T10:06:49;13.40;116.25
67748;HTU21D;54543;50.712;6.070;2023-08-06T10:09:15;13.37;116.14
67748;HTU21D;54543;50.712;6.070;2023-08-06T10:11:42;13.34;114.33
67748;HTU21D;54543;50.712;6.070;2023-08-06T10:14:18;13.32;110.36
67748;HTU21D;54543;50.712;6.070;2023-08-06T10:16:46;13.37;108.88
67748;HTU21D;54543;50.712;6.070;2023-08-06T10:19:14;13.40;108.44
67748;HTU21D;54543;50.712;6.070;2023-08-06T10:21:40;13.41;108.43
67748;HTU21D;54543;50.712;6.070;2023-08-06T10:24:09;13.41;108.62
67748;HTU21D;54543;50.712;6.070;2023-08-06T10:26:40;13.45;108.50
67748;HTU21D;54543;50.712;6.070;2023-08-06T10:29:45;13.46;108.47
67748;HTU21D;54543;50.712;6.070;2023-08-06T10:32:10;13.46;109.88
67748;HTU21D;54543;50.712;6.070;2023-08-06T10:34:55;13.44;108.84
67748;HTU21D;54543;50.712;6.070;2023-08-06T10:37:22;13.48;108.88
67748;HTU21D;54543;50.712;6.070;2023-08-06T10:39:50;13.52;108.98
67748;HTU21D;54543;50.712;6.070;2023-08-06T10:42:26;13.59;109.06
67748;HTU21D;54543;50.712;6.070;2023-08-06T10:47:38;13.70;109.51
67748;HTU21D;54543;50.712;6.070;2023-08-06T10:50:14;13.68;109.09
67748;HTU21D;54543;50.712;6.070;2023-08-06T10:52:44;13.60;108.80
67748;HTU21D;54543;50.712;6.070;2023-08-06T10:55:10;13.53;108.66
67748;HTU21D;54543;50.712;6.070;2023-08-06T10:57:36;13.47;108.92
67748;HTU21D;54543;50.712;6.070;2023-08-06T11:00:05;13.52;109.32
67748;HTU21D;54543;50.712;6.070;2023-08-06T11:02:35;13.58;109.59
67748;HTU21D;54543;50.712;6.070;2023-08-06T11:05:08;13.62;109.39
67748;HTU21D;54543;50.712;6.070;2023-08-06T11:07:35;13.61;109.14
67748;HTU21D;54543;50.712;6.070;2023-08-06T11:10:05;13.54;108.91
67748;HTU21D;54543;50.712;6.070;2023-08-06T11:12:34;13.53;108.97
67748;HTU21D;54543;50.712;6.070;2023-08-06T11:15:00;13.59;109.00
67748;HTU21D;54543;50.712;6.070;2023-08-06T11:17:28;13.65;109.18
67748;HTU21D;54543;50.712;6.070;2023-08-06T11:19:54;13.75;109.32
67748;HTU21D;54543;50.712;6.070;2023-08-06T11:22:23;13.78;109.04
67748;HTU21D;54543;50.712;6.070;2023-08-06T11:24:48;13.79;108.84
67748;HTU21D;54543;50.712;6.070;2023-08-06T11:27:16;13.76;108.65
67748;HTU21D;54543;50.712;6.070;2023-08-06T11:29:43;13.69;108.39
67748;HTU21D;54543;50.712;6.070;2023-08-06T11:32:09;13.66;108.19
67748;HTU21D;54543;50.712;6.070;2023-08-06T11:34:36;13.62;108.45
67748;HTU21D;54543;50.712;6.070;2023-08-06T11:37:07;13.55;107.83
67748;HTU21D;54543;50.712;6.070;2023-08-06T11:39:37;13.49;108.14
67748;HTU21D;54543;50.712;6.070;2023-08-06T11:42:04;13.47;108.59
67748;HTU21D;54543;50.712;6.070;2023-08-06T11:44:35;13.48;108.58
67748;HTU21D;54543;50.712;6.070;2023-08-06T11:47:02;13.46;108.54
67748;HTU21D;54543;50.712;6.070;2023-08-06T11:49:47;13.47;108.19
67748;HTU21D;54543;50.712;6.070;2023-08-06T11:52:24;13.41;108.52
67748;HTU21D;54543;50.712;6.070;2023-08-06T11:55:05;13.36;108.06
67748;HTU21D;54543;50.712;6.070;2023-08-06T11:57:39;13.34;108.19
67748;HTU21D;54543;50.712;6.070;2023-08-06T12:00:10;13.29;108.73
67748;HTU21D;54543;50.712;6.070;2023-08-06T12:02:38;13.29;108.57
67748;HTU21D;54543;50.712;6.070;2023-08-06T12:07:39;13.24;109.14
67748;HTU21D;54543;50.712;6.070;2023-08-06T12:10:06;13.26;109.10
67748;HTU21D;54543;50.712;6.070;2023-08-06T12:12:31;13.22;109.34
67748;HTU21D;54543;50.712;6.070;2023-08-06T12:14:57;13.18;109.45
67748;HTU21D;54543;50.712;6.070;2023-08-06T12:17:24;13.16;109.57
67748;HTU21D;54543;50.712;6.070;2023-08-06T12:19:49;13.17;109.33
67748;HTU21D;54543;50.712;6.070;2023-08-06T12:22:16;13.18;109.33
67748;HTU21D;54543;50.712;6.070;2023-08-06T12:24:43;13.20;109.41
67748;HTU21D;54543;50.712;6.070;2023-08-06T12:27:09;13.23;109.45
67748;HTU21D;54543;50.712;6.070;2023-08-06T12:29:35;13.22;109.21
67748;HTU21D;54543;50.712;6.070;2023-08-06T12:32:03;13.19;109.35
67748;HTU21D;54543;50.712;6.070;2023-08-06T12:34:28;13.16;109.33
67748;HTU21D;54543;50.712;6.070;2023-08-06T12:36:55;13.14;109.92
67748;HTU21D;54543;50.712;6.070;2023-08-06T12:39:21;13.19;110.41
67748;HTU21D;54543;50.712;6.070;2023-08-06T12:41:46;13.21;110.46
67748;HTU21D;54543;50.712;6.070;2023-08-06T12:44:12;13.21;110.52
67748;HTU21D;54543;50.712;6.070;2023-08-06T12:46:38;13.24;110.61
67748;HTU21D;54543;50.712;6.070;2023-08-06T12:49:03;13.26;110.65
67748;HTU21D;54543;50.712;6.070;2023-08-06T12:51:29;13.30;110.62
67748;HTU21D;54543;50.712;6.070;2023-08-06T12:53:55;13.29;110.55
67748;HTU21D;54543;50.712;6.070;2023-08-06T12:56:20;13.32;110.57
67748;HTU21D;54543;50.712;6.070;2023-08-06T12:58:46;13.32;110.46
67748;HTU21D;54543;50.712;6.070;2023-08-06T13:01:11;13.34;110.58
67748;HTU21D;54543;50.712;6.070;2023-08-06T13:03:37;13.40;110.61
67748;HTU21D;54543;50.712;6.070;2023-08-06T13:06:03;13.46;110.50
67748;HTU21D;54543;50.712;6.070;2023-08-06T13:08:29;13.45;110.43
67748;HTU21D;54543;50.712;6.070;2023-08-06T13:10:55;13.41;110.23
67748;HTU21D;54543;50.712;6.070;2023-08-06T13:13:20;13.40;110.30
67748;HTU21D;54543;50.712;6.070;2023-08-06T13:15:46;13.44;110.29
67748;HTU21D;54543;50.712;6.070;2023-08-06T13:18:12;13.46;110.40
67748;HTU21D;54543;50.712;6.070;2023-08-06T13:20:39;13.44;110.50
67748;HTU21D;54543;50.712;6.070;2023-08-06T13:23:05;13.46;110.46
67748;HTU21D;54543;50.712;6.070;2023-08-06T13:25:31;13.43;110.42
67748;HTU21D;54543;50.712;6.070;2023-08-06T13:28:02;13.40;110.37
67748;HTU21D;54543;50.712;6.070;2023-08-06T13:30:28;13.39;110.30
67748;HTU21D;54543;50.712;6.070;2023-08-06T13:32:53;13.33;110.26
67748;HTU21D;54543;50.712;6.070;2023-08-06T13:35:22;13.23;109.84
67748;HTU21D;54543;50.712;6.070;2023-08-06T13:37:48;13.22;109.93
67748;HTU21D;54543;50.712;6.070;2023-08-06T13:40:14;13.18;110.08
67748;HTU21D;54543;50.712;6.070;2023-08-06T13:42:40;13.16;110.24
67748;HTU21D;54543;50.712;6.070;2023-08-06T13:45:06;13.12;110.02
67748;HTU21D;54543;50.712;6.070;2023-08-06T13:47:32;13.05;109.83
67748;HTU21D;54543;50.712;6.070;2023-08-06T13:49:58;13.03;109.84
67748;HTU21D;54543;50.712;6.070;2023-08-06T13:52:27;13.01;110.04
67748;HTU21D;54543;50.712;6.070;2023-08-06T13:54:52;13.02;115.13
67748;HTU21D;54543;50.712;6.070;2023-08-06T13:57:18;13.02;114.28
67748;HTU21D;54543;50.712;6.070;2023-08-06T13:59:44;13.03;112.78
67748;HTU21D;54543;50.712;6.070;2023-08-06T14:02:10;13.03;111.93
67748;HTU21D;54543;50.712;6.070;2023-08-06T14:04:35;13.09;111.61
67748;HTU21D;54543;50.712;6.070;2023-08-06T14:07:03;13.15;111.54
67748;HTU21D;54543;50.712;6.070;2023-08-06T14:09:29;13.18;111.39
67748;HTU21D;54543;50.712;6.070;2023-08-06T14:11:54;13.24;111.40
67748;HTU21D;54543;50.712;6.070;2023-08-06T14:14:20;13.24;111.33
67748;HTU21D;54543;50.712;6.070;2023-08-06T14:16:52;13.20;110.94
67748;HTU21D;54543;50.712;6.070;2023-08-06T14:19:22;13.15;110.67
67748;HTU21D;54543;50.712;6.070;2023-08-06T14:21:47;13.15;110.84
67748;HTU21D;54543;50.712;6.070;2023-08-06T14:24:13;13.11;110.78
67748;HTU21D;54543;50.712;6.070;2023-08-06T14:26:40;13.09;110.88
67748;HTU21D;54543;50.712;6.070;2023-08-06T14:29:06;13.09;111.03
67748;HTU21D;54543;50.712;6.070;2023-08-06T14:31:31;13.12;111.06
67748;HTU21D;54543;50.712;6.070;2023-08-06T14:33:57;13.11;111.09
67748;HTU21D;54543;50.712;6.070;2023-08-06T14:36:23;13.10;110.84
67748;HTU21D;54543;50.712;6.070;2023-08-06T14:38:49;13.08;110.92
67748;HTU21D;54543;50.712;6.070;2023-08-06T14:41:14;13.07;110.71
67748;HTU21D;54543;50.712;6.070;2023-08-06T14:43:40;13.05;110.77
67748;HTU21D;54543;50.712;6.070;2023-08-06T14:46:05;13.04;110.87
67748;HTU21D;54543;50.712;6.070;2023-08-06T14:48:31;13.05;110.81
67748;HTU21D;54543;50.712;6.070;2023-08-06T14:50:57;13.00;110.62
67748;HTU21D;54543;50.712;6.070;2023-08-06T14:53:22;12.99;110.78
67748;HTU21D;54543;50.712;6.070;2023-08-06T14:55:48;12.96;110.81
67748;HTU21D;54543;50.712;6.070;2023-08-06T14:58:14;12.96;110.96
67748;HTU21D;54543;50.712;6.070;2023-08-06T15:00:39;12.95;110.90
67748;HTU21D;54543;50.712;6.070;2023-08-06T15:03:05;12.96;110.94
67748;HTU21D;54543;50.712;6.070;2023-08-06T15:05:31;12.90;110.76
67748;HTU21D;54543;50.712;6.070;2023-08-06T15:07:56;12.87;110.91
67748;HTU21D;54543;50.712;6.070;2023-08-06T15:10:23;12.90;111.08
67748;HTU21D;54543;50.712;6.070;2023-08-06T15:12:49;12.90;110.97
67748;HTU21D;54543;50.712;6.070;2023-08-06T15:15:14;12.85;110.97